Time;durP1;ratioP1;P1;durP2;ratioP2;P2;SDS_P1;SDS_P2;PMS_P1;PMS_P2;Temp;Humidity;BMP_temperature;BMP_pressure;BME280_temperature;BME280_humidity;BME280_pressure;Samples;Min_cycle;Max_cycle;Signal;HPM_P1;HPM_P2
2021/04/09 00:02:03;;;;;;;37.00;34.38;;;;;;;;;;5029264;28;20115;-52
2021/04/09 00:04:30;;;;;;;33.03;31.33;;;;;;;;;;5025868;28;20103;-51
2021/04/09 00:06:57;;;;;;;30.67;29.23;;;;;;;;;;5034277;28;20053;-52
2021/04/09 00:09:23;;;;;;;27.48;26.48;;;;;;;;;;5026749;28;20050;-48
2021/04/09 00:11:50;;;;;;;29.98;27.95;;;;;;;;;;5032668;28;20047;-49
2021/04/09 00:14:16;;;;;;;29.52;27.98;;;;;;;;;;5030618;28;20053;-51
2021/04/09 00:16:43;;;;;;;29.65;28.40;;;;;;;;;;5027505;28;20474;-48
2021/04/09 00:19:14;;;;;;;31.50;30.05;;;;;;;;;;5024556;28;20037;-51
2021/04/09 00:21:42;;;;;;;28.73;27.40;;;;;;;;;;5025747;28;20048;-49
2021/04/09 00:24:08;;;;;;;30.70;29.23;;;;;;;;;;5030671;28;20038;-48
2021/04/09 00:26:35;;;;;;;30.25;27.98;;;;;;;;;;5031250;28;20052;-52
2021/04/09 00:29:01;;;;;;;28.85;27.45;;;;;;;;;;5026551;28;20045;-52
2021/04/09 00:31:27;;;;;;;32.88;31.15;;;;;;;;;;5032931;28;20112;-51
2021/04/09 00:33:54;;;;;;;28.95;27.58;;;;;;;;;;5026909;28;20462;-50
2021/04/09 00:36:20;;;;;;;31.85;29.95;;;;;;;;;;5028671;28;20498;-53
2021/04/09 00:38:46;;;;;;;30.15;27.88;;;;;;;;;;5033208;28;20041;-52
2021/04/09 00:41:22;;;;;;;27.52;26.13;;;;;;;;;;5024080;28;20131;-51
2021/04/09 00:43:48;;;;;;;26.98;25.85;;;;;;;;;;5027123;28;20064;-49
2021/04/09 00:46:15;;;;;;;32.30;30.92;;;;;;;;;;5018222;28;20048;-48
2021/04/09 00:48:41;;;;;;;29.42;28.17;;;;;;;;;;5026003;28;20058;-49
2021/04/09 00:51:07;;;;;;;27.83;26.75;;;;;;;;;;5032903;28;20095;-51
2021/04/09 00:53:34;;;;;;;28.58;27.27;;;;;;;;;;5028785;28;20045;-51
2021/04/09 00:56:03;;;;;;;30.77;29.30;;;;;;;;;;5032121;28;20524;-52
2021/04/09 00:58:29;;;;;;;29.02;27.63;;;;;;;;;;5027850;28;20069;-52
2021/04/09 01:00:56;;;;;;;27.50;26.60;;;;;;;;;;5026869;28;20100;-49
2021/04/09 01:03:23;;;;;;;28.63;27.02;;;;;;;;;;5028552;28;20100;-48
2021/04/09 01:05:51;;;;;;;29.30;27.95;;;;;;;;;;5026374;28;20405;-48
2021/04/09 01:08:17;;;;;;;30.67;29.20;;;;;;;;;;5025552;28;20508;-49
2021/04/09 01:10:43;;;;;;;27.98;26.65;;;;;;;;;;5028223;28;20033;-49
2021/04/09 01:13:10;;;;;;;29.60;28.30;;;;;;;;;;5024986;28;20042;-49
2021/04/09 01:15:36;;;;;;;32.30;30.52;;;;;;;;;;5032548;28;20037;-51
2021/04/09 01:18:08;;;;;;;33.60;31.90;;;;;;;;;;5026709;28;20041;-51
2021/04/09 01:20:37;;;;;;;31.92;30.23;;;;;;;;;;5028190;28;20042;-49
2021/04/09 01:23:12;;;;;;;31.55;29.80;;;;;;;;;;5030756;28;20062;-50
2021/04/09 01:25:39;;;;;;;29.38;27.73;;;;;;;;;;5027801;28;20037;-49
2021/04/09 01:28:09;;;;;;;31.55;29.88;;;;;;;;;;5020079;28;20056;-51
2021/04/09 01:30:52;;;;;;;31.50;30.00;;;;;;;;;;5027715;28;20053;-50
2021/04/09 01:33:22;;;;;;;29.13;28.00;;;;;;;;;;5025625;28;20088;-51
2021/04/09 01:35:52;;;;;;;31.05;29.83;;;;;;;;;;5030238;28;20041;-52
2021/04/09 01:38:19;;;;;;;29.92;28.65;;;;;;;;;;5026515;28;20037;-48
2021/04/09 01:40:46;;;;;;;31.90;30.63;;;;;;;;;;5028240;28;20097;-52
2021/04/09 01:43:15;;;;;;;32.22;30.80;;;;;;;;;;5031707;28;20429;-50
2021/04/09 01:45:42;;;;;;;31.15;30.05;;;;;;;;;;5025793;28;20069;-52
2021/04/09 01:48:09;;;;;;;29.55;28.38;;;;;;;;;;5031181;28;20037;-49
2021/04/09 01:50:36;;;;;;;31.13;29.98;;;;;;;;;;5025778;28;20034;-51
2021/04/09 01:53:04;;;;;;;29.23;27.83;;;;;;;;;;5027096;28;20042;-51
2021/04/09 01:55:32;;;;;;;26.77;25.67;;;;;;;;;;5031989;28;20054;-51
2021/04/09 01:58:00;;;;;;;26.80;26.20;;;;;;;;;;5022982;28;20122;-49
2021/04/09 02:00:26;;;;;;;30.08;28.95;;;;;;;;;;5025080;28;20042;-52
2021/04/09 02:02:53;;;;;;;31.10;29.80;;;;;;;;;;5027297;28;20037;-52
2021/04/09 02:05:21;;;;;;;25.48;24.77;;;;;;;;;;5021822;28;20053;-49
2021/04/09 02:07:48;;;;;;;26.40;25.40;;;;;;;;;;5024485;28;20441;-49
2021/04/09 02:10:15;;;;;;;32.10;30.75;;;;;;;;;;5025507;28;20033;-49
2021/04/09 02:12:42;;;;;;;32.17;30.55;;;;;;;;;;5027591;28;20040;-47
2021/04/09 02:15:10;;;;;;;30.27;29.25;;;;;;;;;;5028106;28;20037;-48
2021/04/09 02:17:36;;;;;;;31.95;30.55;;;;;;;;;;5024997;28;20033;-52
2021/04/09 02:20:10;;;;;;;30.23;28.85;;;;;;;;;;5020294;28;20394;-50
2021/04/09 02:22:36;;;;;;;;;;;;;;;;;;5024181;28;20041;-48
2021/04/09 02:25:02;;;;;;;28.00;27.00;;;;;;;;;;5021895;28;19921;-51
2021/04/09 02:27:29;;;;;;;31.92;30.75;;;;;;;;;;5025471;28;20042;-47
2021/04/09 02:29:56;;;;;;;30.63;29.42;;;;;;;;;;5020669;28;20096;-49
2021/04/09 02:32:22;;;;;;;31.58;29.98;;;;;;;;;;5015994;28;20041;-51
2021/04/09 02:34:49;;;;;;;35.30;33.47;;;;;;;;;;5025340;28;20048;-48
2021/04/09 02:37:17;;;;;;;30.60;29.50;;;;;;;;;;5024220;28;20030;-46
2021/04/09 02:39:44;;;;;;;33.17;31.67;;;;;;;;;;5027197;28;20045;-52
2021/04/09 02:42:11;;;;;;;31.75;30.48;;;;;;;;;;5019922;28;20429;-51
2021/04/09 02:44:38;;;;;;;33.00;31.60;;;;;;;;;;5031583;28;20099;-48
2021/04/09 02:47:07;;;;;;;31.00;29.80;;;;;;;;;;5042043;28;20111;-50
2021/04/09 02:49:37;;;;;;;32.65;31.23;;;;;;;;;;5022759;28;20058;-49
2021/04/09 02:52:04;;;;;;;34.92;33.50;;;;;;;;;;5030558;28;20033;-48
2021/04/09 02:54:33;;;;;;;33.40;31.98;;;;;;;;;;5024553;28;20037;-48
2021/04/09 02:57:00;;;;;;;32.55;31.15;;;;;;;;;;5026324;28;20514;-49
2021/04/09 02:59:28;;;;;;;33.25;31.83;;;;;;;;;;5021321;28;20539;-49
2021/04/09 03:01:55;;;;;;;31.30;30.10;;;;;;;;;;5026541;28;20117;-50
2021/04/09 03:04:21;;;;;;;28.80;27.65;;;;;;;;;;5031768;28;20385;-48
2021/04/09 03:06:48;;;;;;;32.45;30.95;;;;;;;;;;5024487;28;20389;-49
2021/04/09 03:09:15;;;;;;;31.92;30.60;;;;;;;;;;5024690;28;20030;-48
2021/04/09 03:11:42;;;;;;;29.30;28.10;;;;;;;;;;5026688;28;20037;-48
2021/04/09 03:14:10;;;;;;;33.80;32.05;;;;;;;;;;5023274;28;20061;-51
2021/04/09 03:16:39;;;;;;;32.70;30.90;;;;;;;;;;5029306;28;20034;-50
2021/04/09 03:19:06;;;;;;;31.67;30.20;;;;;;;;;;5023651;28;20045;-48
2021/04/09 03:21:32;;;;;;;32.10;30.80;;;;;;;;;;5025305;28;20120;-49
2021/04/09 03:23:59;;;;;;;31.10;29.80;;;;;;;;;;5017204;28;20053;-50
2021/04/09 03:26:25;;;;;;;32.35;30.73;;;;;;;;;;5019410;28;20045;-49
2021/04/09 03:28:51;;;;;;;30.08;28.98;;;;;;;;;;5028287;28;20040;-49
2021/04/09 03:31:18;;;;;;;31.27;29.83;;;;;;;;;;5025230;28;20045;-50
2021/04/09 03:33:44;;;;;;;31.55;30.27;;;;;;;;;;5026247;28;20031;-49
2021/04/09 03:36:10;;;;;;;30.05;28.85;;;;;;;;;;5032000;28;20025;-49
2021/04/09 03:38:37;;;;;;;33.30;31.92;;;;;;;;;;5025813;28;20120;-52
2021/04/09 03:41:03;;;;;;;27.55;26.30;;;;;;;;;;5033840;28;20038;-50
2021/04/09 03:43:30;;;;;;;30.73;29.42;;;;;;;;;;5044525;28;20060;-52
2021/04/09 03:45:56;;;;;;;31.17;29.92;;;;;;;;;;5030586;28;20493;-51
2021/04/09 03:48:23;;;;;;;32.38;31.10;;;;;;;;;;5018880;28;20044;-49
2021/04/09 03:50:49;;;;;;;30.48;28.90;;;;;;;;;;5026225;28;20504;-52
2021/04/09 03:53:15;;;;;;;30.30;28.98;;;;;;;;;;5026724;28;20478;-52
2021/04/09 03:55:41;;;;;;;33.03;31.35;;;;;;;;;;5028359;28;20537;-52
2021/04/09 03:58:08;;;;;;;29.52;28.05;;;;;;;;;;5021206;28;20061;-52
2021/04/09 04:00:34;;;;;;;31.10;29.80;;;;;;;;;;5033244;28;20061;-52
2021/04/09 04:03:01;;;;;;;30.50;29.35;;;;;;;;;;5026160;28;20041;-52
2021/04/09 04:05:27;;;;;;;31.38;29.50;;;;;;;;;;5021866;28;20033;-51
2021/04/09 04:07:53;;;;;;;28.95;27.83;;;;;;;;;;5027438;28;20402;-51
2021/04/09 04:10:19;;;;;;;29.33;28.35;;;;;;;;;;5027272;28;20041;-48
2021/04/09 04:12:46;;;;;;;30.77;29.52;;;;;;;;;;5032300;28;20046;-49
2021/04/09 04:15:12;;;;;;;24.80;23.70;;;;;;;;;;5026732;28;20053;-52
2021/04/09 04:17:38;;;;;;;30.73;29.52;;;;;;;;;;5032259;28;20030;-50
2021/04/09 04:20:07;;;;;;;30.85;29.55;;;;;;;;;;5028909;28;20060;-48
2021/04/09 04:22:33;;;;;;;31.17;30.00;;;;;;;;;;5026390;28;20042;-49
2021/04/09 04:24:59;;;;;;;31.35;29.83;;;;;;;;;;5033920;28;20049;-49
2021/04/09 04:27:25;;;;;;;30.08;28.98;;;;;;;;;;5022001;28;20057;-47
2021/04/09 04:29:51;;;;;;;28.75;27.85;;;;;;;;;;5019032;28;20139;-49
2021/04/09 04:32:18;;;;;;;28.83;27.23;;;;;;;;;;5030843;28;20650;-48
2021/04/09 04:34:44;;;;;;;29.92;28.58;;;;;;;;;;5029625;28;20057;-49
2021/04/09 04:37:10;;;;;;;30.95;29.30;;;;;;;;;;5033536;28;20041;-49
2021/04/09 04:39:36;;;;;;;29.42;28.23;;;;;;;;;;5027317;28;20389;-48
2021/04/09 04:42:03;;;;;;;29.10;27.95;;;;;;;;;;5029543;28;20064;-50
2021/04/09 04:44:30;;;;;;;30.67;29.08;;;;;;;;;;5029905;28;20087;-49
2021/04/09 04:46:56;;;;;;;28.75;27.75;;;;;;;;;;5027762;28;20050;-49
2021/04/09 04:49:22;;;;;;;30.88;29.40;;;;;;;;;;5017491;28;20452;-50
2021/04/09 04:51:48;;;;;;;35.58;33.75;;;;;;;;;;5026757;28;20045;-52
2021/04/09 04:54:15;;;;;;;31.92;30.38;;;;;;;;;;5030862;28;20053;-50
2021/04/09 04:56:47;;;;;;;34.47;32.80;;;;;;;;;;5031426;28;20052;-47
2021/04/09 04:59:13;;;;;;;30.55;29.25;;;;;;;;;;5026364;28;20482;-50
2021/04/09 05:01:40;;;;;;;31.30;30.13;;;;;;;;;;5032982;28;20045;-52
2021/04/09 05:04:06;;;;;;;27.65;26.45;;;;;;;;;;5028435;28;20489;-52
2021/04/09 05:06:32;;;;;;;29.60;28.50;;;;;;;;;;5029342;28;20474;-52
2021/04/09 05:08:59;;;;;;;30.75;29.50;;;;;;;;;;5024242;28;20049;-49
2021/04/09 05:11:25;;;;;;;31.75;30.40;;;;;;;;;;5024145;28;20034;-49
2021/04/09 05:13:52;;;;;;;30.20;29.17;;;;;;;;;;5033143;28;20096;-51
2021/04/09 05:16:18;;;;;;;30.30;29.20;;;;;;;;;;5018954;28;20061;-53
2021/04/09 05:18:44;;;;;;;31.92;30.45;;;;;;;;;;5028721;28;20029;-51
2021/04/09 05:21:11;;;;;;;30.60;29.40;;;;;;;;;;5031337;28;20037;-52
2021/04/09 05:23:37;;;;;;;33.30;32.00;;;;;;;;;;5026017;28;20041;-52
2021/04/09 05:26:04;;;;;;;31.40;30.02;;;;;;;;;;5021633;28;20041;-54
2021/04/09 05:28:30;;;;;;;32.33;30.20;;;;;;;;;;5028449;28;20076;-54
2021/04/09 05:30:56;;;;;;;33.28;32.17;;;;;;;;;;5028158;28;20068;-54
2021/04/09 05:33:23;;;;;;;33.88;32.58;;;;;;;;;;5031394;28;20072;-54
2021/04/09 05:35:49;;;;;;;31.52;30.17;;;;;;;;;;5027115;28;20428;-54
2021/04/09 05:38:16;;;;;;;29.67;28.25;;;;;;;;;;5030769;28;20533;-54
2021/04/09 05:40:42;;;;;;;32.13;30.48;;;;;;;;;;5028614;28;20069;-54
2021/04/09 05:43:08;;;;;;;32.72;31.17;;;;;;;;;;5025342;28;20045;-54
2021/04/09 05:45:34;;;;;;;28.92;27.67;;;;;;;;;;5032241;28;20041;-54
2021/04/09 05:48:05;;;;;;;34.70;32.45;;;;;;;;;;5026351;28;20072;-53
2021/04/09 05:50:32;;;;;;;31.40;29.70;;;;;;;;;;5029726;28;20549;-54
2021/04/09 05:52:58;;;;;;;30.67;29.45;;;;;;;;;;5028784;28;20037;-54
2021/04/09 05:55:25;;;;;;;31.40;29.60;;;;;;;;;;5025996;28;20097;-54
2021/04/09 05:57:52;;;;;;;30.60;29.20;;;;;;;;;;5019005;28;20080;-54
2021/04/09 06:00:19;;;;;;;30.27;29.23;;;;;;;;;;5025270;28;20036;-52
2021/04/09 06:02:45;;;;;;;29.80;28.45;;;;;;;;;;5029768;28;20049;-53
2021/04/09 06:05:12;;;;;;;30.35;29.23;;;;;;;;;;5029558;28;20116;-54
2021/04/09 06:07:38;;;;;;;30.23;29.23;;;;;;;;;;5024029;28;20069;-54
2021/04/09 06:10:05;;;;;;;30.05;27.90;;;;;;;;;;5032685;28;20034;-54
2021/04/09 06:12:31;;;;;;;25.52;24.58;;;;;;;;;;5025502;28;20037;-54
2021/04/09 06:14:58;;;;;;;25.88;24.80;;;;;;;;;;5028174;28;20034;-54
2021/04/09 06:17:24;;;;;;;88.38;64.82;;;;;;;;;;5031013;28;20080;-52
2021/04/09 06:19:50;;;;;;;34.53;31.95;;;;;;;;;;5025706;28;20050;-54
2021/04/09 06:22:17;;;;;;;27.10;26.20;;;;;;;;;;5030836;28;20040;-55
2021/04/09 06:24:44;;;;;;;25.05;24.23;;;;;;;;;;5019239;28;20052;-53
2021/04/09 06:27:10;;;;;;;29.73;28.10;;;;;;;;;;5026714;28;20113;-49
2021/04/09 06:29:37;;;;;;;28.90;27.63;;;;;;;;;;5030274;28;20044;-54
2021/04/09 06:32:04;;;;;;;65.20;49.50;;;;;;;;;;5025646;28;20084;-53
2021/04/09 06:34:31;;;;;;;32.70;30.70;;;;;;;;;;5031069;28;20449;-54
2021/04/09 06:36:57;;;;;;;27.33;25.88;;;;;;;;;;5024432;28;20367;-54
2021/04/09 06:39:24;;;;;;;27.98;26.40;;;;;;;;;;5026330;28;20508;-54
2021/04/09 06:41:50;;;;;;;26.67;25.45;;;;;;;;;;5029828;28;20045;-54
2021/04/09 06:44:17;;;;;;;28.13;26.83;;;;;;;;;;5023489;28;20128;-54
2021/04/09 06:46:44;;;;;;;26.02;24.77;;;;;;;;;;5030354;28;20045;-52
2021/04/09 06:49:11;;;;;;;25.27;24.20;;;;;;;;;;5026320;28;20464;-54
2021/04/09 06:51:39;;;;;;;29.33;27.80;;;;;;;;;;5026023;28;20038;-54
2021/04/09 06:54:09;;;;;;;26.48;24.92;;;;;;;;;;5030245;28;20044;-54
2021/04/09 06:56:36;;;;;;;24.00;23.08;;;;;;;;;;5023732;28;20466;-54
2021/04/09 06:59:04;;;;;;;28.10;26.52;;;;;;;;;;5030559;28;20492;-50
2021/04/09 07:01:30;;;;;;;26.30;25.20;;;;;;;;;;5027358;28;20054;-55
2021/04/09 07:03:56;;;;;;;26.25;24.98;;;;;;;;;;5025405;28;20045;-54
2021/04/09 07:06:28;;;;;;;23.58;22.88;;;;;;;;;;5015396;28;20038;-54
2021/04/09 07:08:54;;;;;;;24.23;23.13;;;;;;;;;;5030979;28;20041;-54
2021/04/09 07:11:22;;;;;;;29.23;27.33;;;;;;;;;;5034444;28;20051;-54
2021/04/09 07:13:52;;;;;;;27.23;25.63;;;;;;;;;;5030955;28;20048;-53
2021/04/09 07:16:19;;;;;;;23.90;22.58;;;;;;;;;;5029737;28;20125;-55
2021/04/09 07:18:50;;;;;;;20.38;19.60;;;;;;;;;;5037739;28;20107;-53
2021/04/09 07:21:19;;;;;;;24.35;23.05;;;;;;;;;;5032020;28;20048;-54
2021/04/09 07:23:46;;;;;;;16.48;16.10;;;;;;;;;;5033523;28;20394;-53
2021/04/09 07:26:32;;;;;;;11.50;7.30;;;;;;;;;;5035119;28;20509;-54
2021/04/09 07:28:58;;;;;;;8.82;8.52;;;;;;;;;;5029951;28;20048;-55
2021/04/09 07:31:28;;;;;;;8.10;4.70;;;;;;;;;;5034722;28;20041;-52
2021/04/09 07:33:55;;;;;;;7.40;6.88;;;;;;;;;;5035440;28;20048;-55
2021/04/09 07:36:21;;;;;;;5.10;5.00;;;;;;;;;;5030781;28;20413;-54
2021/04/09 07:38:53;;;;;;;9.57;9.18;;;;;;;;;;5038311;28;20616;-55
2021/04/09 07:41:20;;;;;;;5.30;5.15;;;;;;;;;;5029840;28;20049;-55
2021/04/09 07:43:46;;;;;;;6.97;6.88;;;;;;;;;;5034662;28;20453;-55
2021/04/09 07:46:22;;;;;;;8.57;8.10;;;;;;;;;;5034560;28;20045;-55
2021/04/09 07:49:00;;;;;;;10.32;10.10;;;;;;;;;;5029742;28;20073;-55
2021/04/09 07:51:26;;;;;;;14.07;13.75;;;;;;;;;;5034119;28;20038;-55
2021/04/09 07:53:53;;;;;;;3.63;3.53;;;;;;;;;;5034900;28;20127;-56
2021/04/09 07:56:19;;;;;;;10.48;10.23;;;;;;;;;;5030458;28;20037;-55
2021/04/09 07:58:54;;;;;;;8.10;7.80;;;;;;;;;;5037108;28;20076;-54
2021/04/09 08:01:22;;;;;;;3.30;3.20;;;;;;;;;;5030401;28;20033;-56
2021/04/09 08:03:48;;;;;;;3.08;1.85;;;;;;;;;;5033526;28;20543;-55
2021/04/09 08:06:14;;;;;;;5.05;4.68;;;;;;;;;;5035602;28;20045;-56
2021/04/09 08:08:47;;;;;;;8.25;8.15;;;;;;;;;;5029437;28;20056;-54
2021/04/09 08:11:29;;;;;;;9.85;9.65;;;;;;;;;;5026517;28;20091;-56
2021/04/09 08:14:04;;;;;;;5.68;5.57;;;;;;;;;;5032124;28;20033;-56
2021/04/09 08:16:33;;;;;;;6.50;6.22;;;;;;;;;;5033037;28;20037;-56
2021/04/09 08:19:08;;;;;;;4.28;4.28;;;;;;;;;;5034550;28;20437;-55
2021/04/09 08:21:38;;;;;;;5.25;5.05;;;;;;;;;;5028192;28;20470;-56
2021/04/09 08:24:05;;;;;;;3.22;3.13;;;;;;;;;;5031110;28;20083;-56
2021/04/09 08:26:32;;;;;;;5.18;2.92;;;;;;;;;;5031443;28;20470;-53
2021/04/09 08:28:58;;;;;;;3.45;2.42;;;;;;;;;;5026938;28;20553;-56
2021/04/09 08:31:26;;;;;;;2.05;1.95;;;;;;;;;;5032962;28;20041;-53
2021/04/09 08:33:53;;;;;;;3.03;2.40;;;;;;;;;;5021259;28;20076;-55
2021/04/09 08:36:19;;;;;;;2.85;1.67;;;;;;;;;;5017855;28;20136;-53
2021/04/09 08:38:46;;;;;;;2.45;1.90;;;;;;;;;;5033754;28;20048;-55
2021/04/09 08:41:12;;;;;;;1.77;1.67;;;;;;;;;;5024600;28;20041;-56
2021/04/09 08:43:39;;;;;;;1.33;1.33;;;;;;;;;;5025060;28;20076;-55
2021/04/09 08:46:06;;;;;;;2.92;1.40;;;;;;;;;;5029721;28;20049;-56
2021/04/09 08:48:33;;;;;;;1.30;1.30;;;;;;;;;;5026759;28;20164;-55
2021/04/09 08:51:00;;;;;;;1.30;1.30;;;;;;;;;;5033465;28;20392;-56
2021/04/09 08:53:27;;;;;;;1.08;1.08;;;;;;;;;;5025945;28;20145;-55
2021/04/09 08:55:53;;;;;;;1.10;1.00;;;;;;;;;;5031490;28;20038;-55
2021/04/09 08:58:19;;;;;;;1.33;1.20;;;;;;;;;;5029252;28;20047;-55
2021/04/09 09:00:47;;;;;;;1.20;1.20;;;;;;;;;;5028001;28;20065;-55
2021/04/09 09:03:24;;;;;;;1.35;1.10;;;;;;;;;;5034626;28;20466;-55
2021/04/09 09:05:54;;;;;;;1.05;0.93;;;;;;;;;;5024751;28;20052;-55
2021/04/09 09:08:20;;;;;;;1.67;1.30;;;;;;;;;;5046551;28;20536;-54
2021/04/09 09:10:47;;;;;;;2.40;1.30;;;;;;;;;;5030606;28;20033;-56
2021/04/09 09:13:21;;;;;;;1.20;1.20;;;;;;;;;;5026691;28;20033;-55
2021/04/09 09:15:47;;;;;;;1.58;1.00;;;;;;;;;;5032228;28;20466;-55
2021/04/09 09:18:22;;;;;;;5.10;1.20;;;;;;;;;;5027890;28;20029;-55
2021/04/09 09:21:10;;;;;;;1.00;1.00;;;;;;;;;;5025672;28;20116;-53
2021/04/09 09:23:54;;;;;;;1.25;1.17;;;;;;;;;;5032919;28;20037;-52
2021/04/09 09:26:20;;;;;;;4.13;1.70;;;;;;;;;;5027469;28;20084;-54
2021/04/09 09:28:47;;;;;;;4.78;1.92;;;;;;;;;;5027810;28;20061;-56
2021/04/09 09:31:27;;;;;;;3.13;1.02;;;;;;;;;;5029989;28;20048;-56
2021/04/09 09:34:13;;;;;;;2.15;1.52;;;;;;;;;;5026607;28;20033;-56
2021/04/09 09:36:59;;;;;;;4.00;1.10;;;;;;;;;;5028290;28;20120;-55
2021/04/09 09:39:38;;;;;;;2.33;1.10;;;;;;;;;;5032569;28;20052;-56
2021/04/09 09:42:28;;;;;;;2.17;1.25;;;;;;;;;;5026903;28;20049;-55
2021/04/09 09:44:57;;;;;;;1.83;1.20;;;;;;;;;;5027868;28;20128;-56
2021/04/09 09:47:25;;;;;;;1.30;1.20;;;;;;;;;;5031285;28;20494;-56
2021/04/09 09:50:00;;;;;;;1.10;1.10;;;;;;;;;;5025541;28;20045;-55
2021/04/09 09:52:45;;;;;;;1.58;1.23;;;;;;;;;;5031625;28;20034;-56
2021/04/09 09:55:38;;;;;;;2.00;1.80;;;;;;;;;;5029924;28;20045;-55
2021/04/09 09:58:18;;;;;;;1.75;1.25;;;;;;;;;;5024989;28;20042;-56
2021/04/09 10:00:51;;;;;;;2.05;1.25;;;;;;;;;;5030571;28;20049;-56
2021/04/09 10:03:18;;;;;;;1.00;1.00;;;;;;;;;;5029031;28;20429;-55
2021/04/09 10:05:52;;;;;;;1.27;1.00;;;;;;;;;;5022210;28;20046;-55
2021/04/09 10:08:19;;;;;;;1.33;1.00;;;;;;;;;;5029315;28;20120;-55
2021/04/09 10:10:47;;;;;;;2.15;1.00;;;;;;;;;;5024305;28;20049;-55
2021/04/09 10:13:14;;;;;;;0.90;0.90;;;;;;;;;;5025132;28;20037;-56
2021/04/09 10:15:41;;;;;;;1.23;1.08;;;;;;;;;;5028943;28;20072;-54
2021/04/09 10:18:07;;;;;;;2.05;1.38;;;;;;;;;;5023554;28;20049;-55
2021/04/09 10:20:33;;;;;;;1.67;1.27;;;;;;;;;;5030323;28;20045;-56
2021/04/09 10:23:00;;;;;;;1.00;1.00;;;;;;;;;;5026644;28;20046;-54
2021/04/09 10:25:30;;;;;;;1.15;0.80;;;;;;;;;;5026149;28;20045;-56
2021/04/09 10:27:56;;;;;;;5.68;1.20;;;;;;;;;;5029833;28;20124;-56
2021/04/09 10:30:26;;;;;;;1.20;0.90;;;;;;;;;;5023834;28;20068;-56
2021/04/09 10:32:53;;;;;;;1.27;1.17;;;;;;;;;;5021108;28;20045;-56
2021/04/09 10:35:26;;;;;;;1.45;1.10;;;;;;;;;;5018084;28;20482;-56
2021/04/09 10:38:09;;;;;;;1.20;1.20;;;;;;;;;;5022048;28;20042;-56
2021/04/09 10:40:55;;;;;;;0.90;0.90;;;;;;;;;;5024180;28;20045;-50
2021/04/09 10:43:32;;;;;;;1.20;1.10;;;;;;;;;;5025619;28;20037;-56
2021/04/09 10:46:11;;;;;;;4.00;1.00;;;;;;;;;;5022378;28;20061;-55
2021/04/09 10:48:39;;;;;;;1.00;1.00;;;;;;;;;;5019542;28;20042;-55
2021/04/09 10:51:06;;;;;;;3.30;1.00;;;;;;;;;;5021817;28;20041;-56
2021/04/09 10:53:38;;;;;;;1.38;1.05;;;;;;;;;;5018583;28;20141;-55
2021/04/09 10:56:08;;;;;;;1.23;1.20;;;;;;;;;;5024837;28;20040;-56
2021/04/09 10:58:35;;;;;;;1.10;1.00;;;;;;;;;;5016490;28;20065;-56
2021/04/09 11:01:03;;;;;;;1.73;1.00;;;;;;;;;;5029717;28;20506;-55
2021/04/09 11:03:30;;;;;;;1.02;1.00;;;;;;;;;;5024499;28;20049;-56
2021/04/09 11:05:56;;;;;;;1.40;0.90;;;;;;;;;;5027996;28;20074;-56
2021/04/09 11:08:38;;;;;;;1.98;0.80;;;;;;;;;;5027488;28;20044;-56
2021/04/09 11:11:08;;;;;;;0.90;0.90;;;;;;;;;;5021284;28;20046;-55
2021/04/09 11:13:37;;;;;;;0.80;0.80;;;;;;;;;;5022469;28;20033;-55
2021/04/09 11:16:04;;;;;;;1.02;1.02;;;;;;;;;;5026044;28;20051;-55
2021/04/09 11:18:49;;;;;;;3.25;0.80;;;;;;;;;;5026912;28;20026;-50
2021/04/09 11:21:32;;;;;;;0.90;0.90;;;;;;;;;;5030712;28;20045;-56
2021/04/09 11:23:59;;;;;;;3.50;1.17;;;;;;;;;;5020146;28;20041;-55
2021/04/09 11:26:25;;;;;;;1.10;1.00;;;;;;;;;;5027515;28;20040;-56
2021/04/09 11:28:52;;;;;;;2.55;1.00;;;;;;;;;;5029726;28;20069;-56
2021/04/09 11:31:24;;;;;;;0.93;0.93;;;;;;;;;;5025377;28;20036;-56
2021/04/09 11:34:09;;;;;;;1.55;1.00;;;;;;;;;;5028521;28;20045;-56
2021/04/09 11:36:47;;;;;;;1.50;1.00;;;;;;;;;;5029170;28;20076;-56
2021/04/09 11:39:13;;;;;;;0.93;0.90;;;;;;;;;;5023835;28;20039;-55
2021/04/09 11:41:40;;;;;;;0.90;0.90;;;;;;;;;;5021206;28;20045;-52
2021/04/09 11:44:25;;;;;;;0.90;0.90;;;;;;;;;;5026587;28;20486;-56
2021/04/09 11:46:52;;;;;;;2.40;0.93;;;;;;;;;;5025481;28;20030;-55
2021/04/09 11:49:26;;;;;;;1.20;1.00;;;;;;;;;;5029406;28;20061;-55
2021/04/09 11:52:00;;;;;;;1.00;1.00;;;;;;;;;;5019427;28;20045;-55
2021/04/09 11:54:31;;;;;;;0.90;0.90;;;;;;;;;;5021889;28;20092;-54
2021/04/09 11:56:58;;;;;;;1.00;0.90;;;;;;;;;;5032199;28;20037;-55
2021/04/09 11:59:25;;;;;;;0.95;0.95;;;;;;;;;;5026815;28;20046;-55
2021/04/09 12:01:53;;;;;;;1.00;0.90;;;;;;;;;;5034927;28;20552;-55
2021/04/09 12:04:35;;;;;;;0.90;0.90;;;;;;;;;;5029228;28;20042;-56
2021/04/09 12:07:03;;;;;;;1.80;1.08;;;;;;;;;;5026737;28;20048;-55
2021/04/09 12:09:30;;;;;;;1.85;1.00;;;;;;;;;;5034572;28;20550;-55
2021/04/09 12:11:57;;;;;;;1.95;0.80;;;;;;;;;;5029130;28;20045;-55
2021/04/09 12:14:39;;;;;;;0.80;0.80;;;;;;;;;;5032520;28;20060;-55
2021/04/09 12:17:09;;;;;;;1.88;0.90;;;;;;;;;;5031638;28;20037;-55
2021/04/09 12:19:35;;;;;;;2.03;0.80;;;;;;;;;;5027229;28;20034;-55
2021/04/09 12:22:03;;;;;;;3.80;0.90;;;;;;;;;;5031971;28;20121;-54
2021/04/09 12:24:30;;;;;;;1.42;1.15;;;;;;;;;;5029007;28;20056;-55
2021/04/09 12:26:56;;;;;;;0.80;0.80;;;;;;;;;;5027726;28;20449;-55
2021/04/09 12:29:23;;;;;;;1.35;1.25;;;;;;;;;;5031406;28;20037;-43
2021/04/09 12:31:49;;;;;;;2.80;1.00;;;;;;;;;;5023921;28;20036;-42
2021/04/09 12:34:18;;;;;;;1.52;0.80;;;;;;;;;;5033418;28;20116;-42
2021/04/09 12:36:45;;;;;;;1.30;1.20;;;;;;;;;;5028498;28;20061;-42
2021/04/09 12:39:12;;;;;;;1.02;0.90;;;;;;;;;;5028455;28;20034;-43
2021/04/09 12:41:39;;;;;;;2.15;0.90;;;;;;;;;;5034894;28;20037;-42
2021/04/09 12:44:06;;;;;;;0.90;0.90;;;;;;;;;;5025840;28;20052;-42
2021/04/09 12:46:34;;;;;;;1.15;0.90;;;;;;;;;;5031151;28;20046;-44
2021/04/09 12:49:00;;;;;;;0.90;0.90;;;;;;;;;;5028959;28;20084;-42
2021/04/09 12:51:26;;;;;;;1.23;1.23;;;;;;;;;;5027075;28;20037;-42
2021/04/09 12:53:53;;;;;;;1.60;1.10;;;;;;;;;;5016091;28;20049;-42
2021/04/09 12:56:20;;;;;;;3.50;0.90;;;;;;;;;;5027463;28;20516;-42
2021/04/09 12:58:47;;;;;;;0.88;0.88;;;;;;;;;;5030376;28;20038;-42
2021/04/09 13:01:13;;;;;;;3.38;1.00;;;;;;;;;;5023208;28;20041;-43
2021/04/09 13:03:39;;;;;;;0.77;0.77;;;;;;;;;;5026114;28;20112;-43
2021/04/09 13:06:06;;;;;;;3.47;0.80;;;;;;;;;;5033274;28;20451;-44
2021/04/09 13:08:33;;;;;;;1.48;0.80;;;;;;;;;;5026597;28;20038;-43
2021/04/09 13:10:59;;;;;;;4.07;0.80;;;;;;;;;;5030189;28;20129;-44
2021/04/09 13:13:26;;;;;;;1.70;0.90;;;;;;;;;;5018751;28;20049;-44
2021/04/09 13:15:56;;;;;;;0.90;0.90;;;;;;;;;;5030452;28;20096;-43
2021/04/09 13:18:23;;;;;;;0.80;0.80;;;;;;;;;;5033773;28;20040;-43
2021/04/09 13:20:49;;;;;;;0.90;0.90;;;;;;;;;;5029083;28;20056;-44
2021/04/09 13:23:32;;;;;;;1.17;1.17;;;;;;;;;;5027791;28;20037;-42
2021/04/09 13:25:59;;;;;;;2.45;1.00;;;;;;;;;;5015253;28;20049;-43
2021/04/09 13:28:27;;;;;;;1.15;1.10;;;;;;;;;;5025169;28;20080;-43
2021/04/09 13:30:58;;;;;;;0.80;0.80;;;;;;;;;;5032098;28;20049;-43
2021/04/09 13:33:24;;;;;;;0.90;0.90;;;;;;;;;;5028220;28;20363;-42
2021/04/09 13:35:51;;;;;;;3.55;1.27;;;;;;;;;;5027174;28;20049;-44
2021/04/09 13:38:19;;;;;;;2.70;0.90;;;;;;;;;;5032444;28;20048;-44
2021/04/09 13:40:46;;;;;;;0.90;0.90;;;;;;;;;;5025067;28;20060;-42
2021/04/09 13:43:13;;;;;;;0.88;0.88;;;;;;;;;;5029402;28;20504;-43
2021/04/09 13:45:39;;;;;;;1.45;0.80;;;;;;;;;;5028801;28;20489;-43
2021/04/09 13:48:06;;;;;;;1.65;0.70;;;;;;;;;;5026264;28;20108;-43
2021/04/09 13:50:32;;;;;;;1.75;1.65;;;;;;;;;;5032677;28;20049;-42
2021/04/09 13:52:58;;;;;;;4.57;2.60;;;;;;;;;;5020700;28;20037;-43
2021/04/09 13:55:24;;;;;;;0.98;0.98;;;;;;;;;;5018336;28;20096;-43
2021/04/09 13:57:51;;;;;;;2.78;0.80;;;;;;;;;;5028978;28;20043;-43
2021/04/09 14:00:18;;;;;;;1.02;0.80;;;;;;;;;;5025023;28;20470;-43
2021/04/09 14:02:44;;;;;;;1.85;0.93;;;;;;;;;;5031270;28;20049;-42
2021/04/09 14:05:11;;;;;;;2.15;0.90;;;;;;;;;;5025089;28;20404;-45
2021/04/09 14:07:37;;;;;;;1.95;0.93;;;;;;;;;;5027880;28;20057;-47
2021/04/09 14:10:04;;;;;;;1.00;1.00;;;;;;;;;;5031294;28;20037;-42
2021/04/09 14:12:33;;;;;;;1.00;0.90;;;;;;;;;;5023244;28;20069;-44
2021/04/09 14:15:00;;;;;;;1.10;1.00;;;;;;;;;;5031574;28;20480;-45
2021/04/09 14:17:26;;;;;;;0.77;0.77;;;;;;;;;;5026295;28;20045;-42
2021/04/09 14:19:52;;;;;;;0.80;0.80;;;;;;;;;;5027085;28;20036;-42
2021/04/09 14:22:18;;;;;;;0.80;0.80;;;;;;;;;;5030147;28;20056;-44
2021/04/09 14:24:45;;;;;;;0.80;0.80;;;;;;;;;;5024190;28;20396;-44
2021/04/09 14:27:11;;;;;;;0.80;0.80;;;;;;;;;;5031254;28;20037;-42
2021/04/09 14:29:39;;;;;;;1.35;1.05;;;;;;;;;;5027044;28;20049;-43
2021/04/09 14:32:05;;;;;;;5.75;0.70;;;;;;;;;;5026871;28;20036;-42
2021/04/09 14:34:31;;;;;;;0.70;0.70;;;;;;;;;;5024712;28;20091;-43
2021/04/09 14:36:58;;;;;;;0.80;0.80;;;;;;;;;;5024941;28;20386;-42
2021/04/09 14:39:24;;;;;;;0.90;0.80;;;;;;;;;;5031123;28;20037;-43